createdAt,value
2023-02-06T00:01:26.623Z,100.00
2023-02-06T00:03:54.083Z,100.00
2023-02-06T00:06:23.641Z,99.94
2023-02-06T00:08:51.143Z,99.58
2023-02-06T00:11:19.348Z,99.85
2023-02-06T00:13:47.034Z,100.00
2023-02-06T00:16:21.084Z,100.00
2023-02-06T00:18:48.669Z,99.76
2023-02-06T00:21:21.307Z,99.86
2023-02-06T00:23:50.029Z,99.76
2023-02-06T00:26:18.573Z,99.63
2023-02-06T00:28:47.687Z,99.92
2023-02-06T00:31:15.869Z,100.00
2023-02-06T00:33:43.570Z,100.00
2023-02-06T00:36:11.826Z,99.66
2023-02-06T00:38:40.431Z,99.86
2023-02-06T00:41:08.632Z,99.52
2023-02-06T00:43:37.264Z,99.03
2023-02-06T00:46:06.066Z,98.93
2023-02-06T00:48:33.752Z,99.01
2023-02-06T00:51:01.511Z,99.64
2023-02-06T00:53:30.907Z,100.00
2023-02-06T00:55:58.800Z,100.00
2023-02-06T00:58:26.889Z,100.00
2023-02-06T01:00:56.159Z,100.00
2023-02-06T01:03:25.655Z,100.00
2023-02-06T01:05:54.554Z,100.00
2023-02-06T01:08:22.644Z,100.00
2023-02-06T01:10:51.812Z,100.00
2023-02-06T01:13:19.026Z,100.00
2023-02-06T01:15:46.564Z,100.00
2023-02-06T01:18:13.950Z,100.00
2023-02-06T01:20:41.786Z,100.00
2023-02-06T01:23:10.757Z,100.00
2023-02-06T01:25:38.578Z,100.00
2023-02-06T01:28:06.072Z,100.00
2023-02-06T01:30:33.665Z,100.00
2023-02-06T01:33:01.728Z,100.00
2023-02-06T01:35:30.224Z,100.00
2023-02-06T01:37:57.736Z,100.00
2023-02-06T01:40:25.451Z,100.00
2023-02-06T01:42:53.410Z,100.00
2023-02-06T01:45:26.662Z,99.98
2023-02-06T01:48:08.953Z,99.35
2023-02-06T01:50:41.218Z,99.02
2023-02-06T01:53:13.144Z,98.92
2023-02-06T01:55:42.589Z,99.23
2023-02-06T01:58:11.961Z,99.33
2023-02-06T02:00:39.445Z,99.15
2023-02-06T02:03:07.069Z,99.45
2023-02-06T02:05:36.043Z,99.02
2023-02-06T02:08:28.321Z,99.33
2023-02-06T02:10:55.939Z,99.01
2023-02-06T02:13:23.252Z,98.90
2023-02-06T02:16:01.863Z,99.06
2023-02-06T02:19:13.450Z,98.63
2023-02-06T02:22:11.026Z,98.49
2023-02-06T02:25:27.346Z,99.21
2023-02-06T02:28:06.477Z,98.89
2023-02-06T02:31:11.999Z,98.13
2023-02-06T02:33:58.844Z,98.45
2023-02-06T02:36:26.183Z,99.07
2023-02-06T02:39:23.324Z,99.09
2023-02-06T02:42:04.591Z,100.00
2023-02-06T02:44:44.107Z,100.00
2023-02-06T02:47:15.212Z,100.00
2023-02-06T02:49:45.340Z,100.00
2023-02-06T02:52:14.964Z,100.00
2023-02-06T02:54:42.472Z,99.73
2023-02-06T02:57:14.884Z,100.00
2023-02-06T02:59:47.682Z,100.00
2023-02-06T03:02:35.869Z,100.00
2023-02-06T03:05:10.464Z,100.00
2023-02-06T03:08:02.019Z,100.00
2023-02-06T03:10:32.622Z,99.68
2023-02-06T03:13:21.569Z,99.79
2023-02-06T03:15:57.836Z,99.63
2023-02-06T03:18:47.746Z,100.00
2023-02-06T03:21:18.360Z,100.00
2023-02-06T03:23:48.765Z,100.00
2023-02-06T03:26:20.032Z,100.00
2023-02-06T03:28:54.318Z,99.98
2023-02-06T03:31:29.240Z,99.53
2023-02-06T03:34:07.413Z,99.19
2023-02-06T03:36:35.150Z,99.05
2023-02-06T03:39:03.894Z,98.60
2023-02-06T03:41:37.825Z,98.64
2023-02-06T03:44:09.640Z,98.23
2023-02-06T03:46:40.409Z,98.19
2023-02-06T03:49:12.456Z,98.81
2023-02-06T03:51:43.685Z,98.80
2023-02-06T03:54:14.820Z,98.20
2023-02-06T03:56:52.355Z,98.44
2023-02-06T03:59:20.719Z,98.30
2023-02-06T04:02:00.807Z,98.18
2023-02-06T04:04:36.724Z,98.76
2023-02-06T04:07:19.513Z,99.13
2023-02-06T04:09:46.773Z,99.16
2023-02-06T04:12:15.802Z,99.58
2023-02-06T04:14:44.144Z,99.02
2023-02-06T04:17:14.436Z,98.68
2023-02-06T04:19:43.180Z,98.41
2023-02-06T04:22:14.542Z,99.32
2023-02-06T04:24:43.336Z,99.70
2023-02-06T04:27:13.484Z,99.92
2023-02-06T04:29:41.082Z,100.00
2023-02-06T04:32:09.183Z,100.00
2023-02-06T04:34:38.095Z,100.00
2023-02-06T04:37:06.836Z,100.00
2023-02-06T04:39:34.735Z,100.00
2023-02-06T04:42:02.772Z,99.24
2023-02-06T04:44:31.352Z,99.39
2023-02-06T04:46:59.286Z,100.00
2023-02-06T04:49:27.019Z,99.88
2023-02-06T04:51:54.573Z,99.79
2023-02-06T04:54:22.140Z,99.64
2023-02-06T04:56:49.578Z,100.00
2023-02-06T04:59:17.287Z,99.51
2023-02-06T05:01:44.735Z,99.71
2023-02-06T05:04:12.396Z,98.96
2023-02-06T05:06:39.848Z,99.47
2023-02-06T05:09:07.458Z,99.66
2023-02-06T05:11:34.679Z,99.58
2023-02-06T05:14:02.469Z,99.35
2023-02-06T05:16:29.977Z,99.32
2023-02-06T05:18:58.525Z,99.03
2023-02-06T05:21:27.393Z,98.82
2023-02-06T05:23:55.411Z,99.09
2023-02-06T05:26:23.431Z,99.79
2023-02-06T05:28:50.945Z,99.04
2023-02-06T05:31:21.536Z,98.86
2023-02-06T05:33:52.788Z,98.68
2023-02-06T05:36:21.350Z,98.59
2023-02-06T05:38:49.976Z,98.90
2023-02-06T05:41:18.392Z,98.42
2023-02-06T05:43:46.256Z,98.32
2023-02-06T05:46:13.882Z,98.19
2023-02-06T05:48:41.696Z,98.03
2023-02-06T05:51:09.224Z,97.70
2023-02-06T05:53:36.754Z,99.15
2023-02-06T05:56:05.542Z,98.76
2023-02-06T05:58:32.678Z,98.15
2023-02-06T06:01:00.397Z,98.25
2023-02-06T06:03:27.973Z,97.43
2023-02-06T06:05:56.108Z,98.11
2023-02-06T06:08:23.996Z,97.78
2023-02-06T06:10:53.272Z,97.25
2023-02-06T06:13:21.246Z,97.06
2023-02-06T06:15:53.790Z,97.39
2023-02-06T06:18:22.051Z,96.75
2023-02-06T06:20:49.441Z,96.84
2023-02-06T06:23:17.835Z,96.48
2023-02-06T06:25:47.356Z,96.45
2023-02-06T06:28:15.755Z,95.65
2023-02-06T06:30:43.344Z,95.43
2023-02-06T06:33:11.784Z,95.03
2023-02-06T06:35:39.416Z,94.55
2023-02-06T06:38:06.772Z,94.42
2023-02-06T06:40:34.120Z,93.73
2023-02-06T06:43:01.811Z,93.34
2023-02-06T06:45:29.457Z,92.81
2023-02-06T06:47:57.326Z,92.65
2023-02-06T06:50:25.000Z,92.27
2023-02-06T06:52:52.730Z,91.92
2023-02-06T06:55:20.593Z,91.09
2023-02-06T06:57:48.114Z,90.31
2023-02-06T07:00:16.559Z,90.48
2023-02-06T07:02:44.114Z,90.57
2023-02-06T07:05:12.020Z,89.74
2023-02-06T07:07:39.961Z,89.46
2023-02-06T07:10:09.030Z,89.66
2023-02-06T07:12:37.454Z,89.45
2023-02-06T07:15:06.447Z,89.07
2023-02-06T07:17:33.840Z,88.50
2023-02-06T07:20:01.053Z,87.85
2023-02-06T07:22:28.834Z,88.12
2023-02-06T07:24:56.767Z,88.21
2023-02-06T07:27:24.083Z,87.22
2023-02-06T07:29:51.449Z,86.19
2023-02-06T07:32:19.133Z,85.91
2023-02-06T07:34:46.957Z,85.75
2023-02-06T07:37:15.229Z,85.71
2023-02-06T07:39:42.498Z,85.49
2023-02-06T07:42:10.000Z,85.66
2023-02-06T07:44:57.665Z,83.97
2023-02-06T07:47:25.331Z,82.39
2023-02-06T07:49:52.657Z,81.98
2023-02-06T07:52:22.380Z,82.23
2023-02-06T07:54:50.047Z,81.76
2023-02-06T07:57:20.246Z,80.59
2023-02-06T07:59:48.500Z,80.74
2023-02-06T08:02:16.027Z,80.35
2023-02-06T08:04:43.675Z,79.70
2023-02-06T08:07:15.184Z,79.05
2023-02-06T08:09:43.649Z,78.89
2023-02-06T08:12:12.058Z,77.15
2023-02-06T08:14:39.827Z,77.43
2023-02-06T08:17:08.310Z,75.83
2023-02-06T08:19:36.460Z,75.22
2023-02-06T08:22:03.974Z,74.18
2023-02-06T08:24:32.108Z,75.02
2023-02-06T08:26:59.603Z,74.31
2023-02-06T08:29:31.051Z,73.20
2023-02-06T08:31:58.671Z,73.72
2023-02-06T08:34:25.859Z,73.49
2023-02-06T08:36:53.737Z,73.57
2023-02-06T08:39:20.970Z,73.15
2023-02-06T08:41:48.723Z,71.56
2023-02-06T08:44:18.665Z,71.40
2023-02-06T08:46:49.661Z,71.29
2023-02-06T08:49:22.742Z,71.12
2023-02-06T08:51:50.605Z,71.13
2023-02-06T08:54:20.971Z,71.06
2023-02-06T08:56:49.348Z,70.88
2023-02-06T08:59:18.170Z,69.92
2023-02-06T09:01:46.439Z,68.05
2023-02-06T09:04:14.672Z,67.89
2023-02-06T09:06:46.777Z,67.90
2023-02-06T09:09:14.398Z,67.40
2023-02-06T09:11:42.663Z,66.85
2023-02-06T09:14:15.380Z,64.77
2023-02-06T09:16:42.968Z,64.10
2023-02-06T09:19:11.263Z,63.51
2023-02-06T09:21:38.778Z,64.97
2023-02-06T09:24:09.885Z,64.00
2023-02-06T09:26:53.469Z,62.79
2023-02-06T09:29:26.888Z,62.33
2023-02-06T09:31:55.406Z,63.22
2023-02-06T09:34:25.158Z,63.73
2023-02-06T09:36:55.265Z,63.68
2023-02-06T09:39:23.291Z,63.80
2023-02-06T09:42:00.983Z,65.28
2023-02-06T09:44:40.733Z,62.84
2023-02-06T09:47:19.940Z,63.17
2023-02-06T09:49:52.283Z,62.85
2023-02-06T09:52:44.845Z,62.68
2023-02-06T09:55:31.335Z,62.37
2023-02-06T09:58:08.069Z,63.48
2023-02-06T10:00:44.925Z,61.65
2023-02-06T10:03:44.356Z,61.96
2023-02-06T10:06:43.864Z,61.68
2023-02-06T10:09:22.816Z,62.47
2023-02-06T10:11:59.379Z,61.57
2023-02-06T10:14:48.738Z,62.73
2023-02-06T10:17:34.350Z,61.41
2023-02-06T10:20:16.275Z,61.59
2023-02-06T10:22:53.554Z,61.94
2023-02-06T10:25:36.712Z,61.40
2023-02-06T10:28:31.658Z,62.04
2023-02-06T10:31:33.420Z,63.14
2023-02-06T10:34:35.562Z,65.17
2023-02-06T10:37:33.013Z,67.24
2023-02-06T10:40:38.159Z,68.26
2023-02-06T10:43:15.739Z,68.25
2023-02-06T10:45:51.132Z,68.12
2023-02-06T10:48:18.891Z,67.44
2023-02-06T10:50:57.240Z,66.12
2023-02-06T10:53:37.606Z,67.02
2023-02-06T10:56:12.795Z,68.07
2023-02-06T10:58:46.701Z,68.28
2023-02-06T11:01:25.588Z,69.27
2023-02-06T11:04:06.890Z,69.57
2023-02-06T11:06:35.110Z,70.55
2023-02-06T11:09:02.376Z,72.18
2023-02-06T11:11:33.702Z,68.39
2023-02-06T11:14:15.515Z,66.96
2023-02-06T11:16:44.432Z,66.29
2023-02-06T11:19:19.587Z,64.19
2023-02-06T11:21:53.672Z,60.09
2023-02-06T11:24:27.667Z,57.19
2023-02-06T11:27:01.157Z,52.00
2023-02-06T11:29:40.283Z,52.39
2023-02-06T11:32:12.214Z,53.02
2023-02-06T11:34:54.156Z,54.54
2023-02-06T11:37:40.477Z,54.96
2023-02-06T11:40:20.322Z,57.16
2023-02-06T11:42:54.103Z,55.60
2023-02-06T11:45:33.005Z,53.82
2023-02-06T11:48:01.785Z,53.02
2023-02-06T11:50:35.004Z,54.47
2023-02-06T11:53:17.152Z,54.77
2023-02-06T11:55:46.944Z,54.64
2023-02-06T11:58:15.017Z,55.57
2023-02-06T12:00:58.153Z,55.76
2023-02-06T12:03:34.945Z,57.42
2023-02-06T12:06:22.456Z,56.36
2023-02-06T12:08:55.917Z,56.80
2023-02-06T12:11:49.815Z,55.14
2023-02-06T12:14:26.602Z,54.78
2023-02-06T14:04:37.432Z,79.57
2023-02-06T14:07:06.567Z,78.66
2023-02-06T14:13:18.366Z,77.25
2023-02-06T14:16:18.173Z,76.47
2023-02-06T14:19:39.265Z,75.68
2023-02-06T14:22:39.346Z,73.87
2023-02-06T14:26:10.796Z,73.27
2023-02-06T14:29:54.277Z,72.35
2023-02-06T14:33:05.281Z,71.50
2023-02-06T14:36:15.394Z,71.88
2023-02-06T14:39:17.406Z,71.36
2023-02-06T14:41:48.031Z,70.51
2023-02-06T14:44:37.255Z,71.43
2023-02-06T14:47:09.587Z,71.14
2023-02-06T14:49:42.612Z,71.22
2023-02-06T14:53:20.391Z,70.61
2023-02-06T14:55:49.733Z,70.75
2023-02-06T14:58:51.392Z,70.75
2023-02-06T15:01:32.673Z,71.50
2023-02-06T15:04:22.253Z,71.52
2023-02-06T15:07:10.195Z,71.70
2023-02-06T15:09:56.983Z,71.50
2023-02-06T15:12:29.441Z,71.57
2023-02-06T15:15:15.169Z,72.10
2023-02-06T15:18:06.080Z,72.88
2023-02-06T15:20:49.780Z,73.02
2023-02-06T15:23:28.092Z,73.38
2023-02-06T15:26:22.905Z,73.80
2023-02-06T15:29:04.949Z,74.05
2023-02-06T15:31:33.541Z,73.63
2023-02-06T15:34:02.744Z,74.03
2023-02-06T15:36:34.303Z,73.82
2023-02-06T15:39:06.400Z,74.01
2023-02-06T15:41:38.968Z,73.96
2023-02-06T15:44:32.107Z,73.83
2023-02-06T15:47:04.233Z,73.82
2023-02-06T15:49:38.332Z,73.74
2023-02-06T15:52:06.665Z,73.57
2023-02-06T15:54:35.773Z,73.70
2023-02-06T15:57:18.329Z,73.79
2023-02-06T15:59:46.212Z,73.67
2023-02-06T16:02:43.327Z,73.81
2023-02-06T16:05:26.380Z,74.08
2023-02-06T16:07:55.298Z,73.74
2023-02-06T16:10:27.090Z,73.96
2023-02-06T16:12:56.103Z,73.99
2023-02-06T16:15:29.228Z,73.88
2023-02-06T16:17:59.786Z,73.63
2023-02-06T16:20:37.558Z,74.12
2023-02-06T16:23:23.873Z,74.32
2023-02-06T16:26:13.653Z,74.12
2023-02-06T16:29:02.481Z,74.19
2023-02-06T16:31:32.018Z,74.04
2023-02-06T16:34:07.975Z,73.80
2023-02-06T16:36:35.721Z,74.45
2023-02-06T16:39:04.773Z,74.78
2023-02-06T16:41:41.997Z,74.07
2023-02-06T16:44:14.963Z,74.27
2023-02-06T16:46:45.658Z,74.04
2023-02-06T16:49:19.612Z,74.71
2023-02-06T16:51:53.541Z,75.06
2023-02-06T16:54:32.724Z,75.04
2023-02-06T16:57:26.398Z,75.04
2023-02-06T16:59:54.976Z,75.59
2023-02-06T17:02:27.117Z,76.08
2023-02-06T17:04:55.704Z,75.86
2023-02-06T17:07:31.624Z,76.82
2023-02-06T17:10:01.001Z,76.81
2023-02-06T17:12:31.436Z,76.96
2023-02-06T17:15:02.878Z,77.05
2023-02-06T17:17:33.446Z,77.30
2023-02-06T17:20:04.946Z,78.87
2023-02-06T17:22:32.752Z,79.15
2023-02-06T17:25:01.370Z,79.09
2023-02-06T17:27:32.389Z,79.18
2023-02-06T17:29:59.874Z,78.89
2023-02-06T17:35:20.255Z,78.71
2023-02-06T17:37:49.574Z,79.33
2023-02-06T17:40:21.507Z,79.96
2023-02-06T17:42:50.302Z,79.96
2023-02-06T17:48:14.430Z,80.43
2023-02-06T17:50:42.967Z,80.28
2023-02-06T17:53:20.543Z,80.04
2023-02-06T17:55:54.306Z,80.48
2023-02-06T17:58:27.104Z,80.55
2023-02-06T18:00:58.991Z,79.74
2023-02-06T18:03:41.669Z,79.25
2023-02-06T18:06:11.078Z,79.24
2023-02-06T18:08:40.029Z,80.02
2023-02-06T18:11:10.132Z,80.25
2023-02-06T18:13:47.947Z,80.41
2023-02-06T18:16:28.276Z,80.89
2023-02-06T18:18:56.859Z,80.48
2023-02-06T18:21:24.945Z,80.27
2023-02-06T18:23:53.651Z,80.20
2023-02-06T18:26:22.228Z,80.33
2023-02-06T18:28:52.168Z,80.72
2023-02-06T18:31:37.963Z,80.43
2023-02-06T18:34:08.704Z,80.45
2023-02-06T18:36:37.848Z,80.87
2023-02-06T18:39:08.637Z,81.26
2023-02-06T18:42:08.583Z,81.91
2023-02-06T18:44:42.333Z,81.44
2023-02-06T18:47:16.911Z,82.01
2023-02-06T18:53:37.854Z,81.27
2023-02-06T18:56:13.948Z,81.62
2023-02-06T18:58:46.435Z,83.38
2023-02-06T19:01:36.931Z,83.73
2023-02-06T19:04:07.978Z,83.97
2023-02-06T19:06:40.612Z,84.39
2023-02-06T19:09:10.949Z,85.12
2023-02-06T19:11:49.393Z,85.64
2023-02-06T19:14:27.269Z,85.71
2023-02-06T19:17:05.839Z,85.51
2023-02-06T19:19:44.930Z,85.55
2023-02-06T19:22:12.257Z,85.48
2023-02-06T19:24:44.977Z,85.06
2023-02-06T19:27:14.171Z,84.81
2023-02-06T19:29:43.270Z,84.62
2023-02-06T19:32:11.126Z,84.37
2023-02-06T19:34:41.108Z,84.06
2023-02-06T19:37:10.635Z,83.88
2023-02-06T19:39:43.404Z,83.29
2023-02-06T19:42:22.913Z,83.25
2023-02-06T19:45:17.533Z,82.97
2023-02-06T19:47:47.956Z,82.79
2023-02-06T19:50:15.512Z,82.59
2023-02-06T19:52:49.693Z,82.57
2023-02-06T19:55:17.795Z,82.50
2023-02-06T19:57:45.309Z,82.54
2023-02-06T20:00:17.002Z,81.97
2023-02-06T20:02:48.962Z,82.25
2023-02-06T20:05:16.534Z,82.48
2023-02-06T20:07:45.778Z,82.24
2023-02-06T20:10:14.156Z,82.46
2023-02-06T20:12:41.823Z,82.61
2023-02-06T20:15:12.995Z,82.58
2023-02-06T20:17:41.864Z,82.94
2023-02-06T20:20:10.400Z,83.08
2023-02-06T20:22:40.193Z,83.30
2023-02-06T20:25:12.751Z,83.25
2023-02-06T20:27:39.872Z,83.09
2023-02-06T20:30:07.769Z,83.10
2023-02-06T20:32:35.841Z,82.80
2023-02-06T20:35:03.746Z,82.80
2023-02-06T20:37:31.108Z,83.38
2023-02-06T20:39:59.718Z,83.35
2023-02-06T20:42:46.037Z,83.47
2023-02-06T20:45:24.887Z,84.00
2023-02-06T20:47:55.673Z,84.01
2023-02-06T20:50:29.179Z,84.13
2023-02-06T20:53:04.557Z,84.31
2023-02-06T20:55:45.549Z,84.93
2023-02-06T20:58:21.542Z,85.38
2023-02-06T21:00:57.203Z,85.37
2023-02-06T21:03:25.663Z,85.47
2023-02-06T21:06:00.871Z,85.72
2023-02-06T21:08:29.021Z,85.80
2023-02-06T21:11:07.664Z,85.37
2023-02-06T21:13:35.755Z,85.66
2023-02-06T21:16:05.144Z,85.64
2023-02-06T21:18:33.502Z,85.21
2023-02-06T21:21:09.644Z,85.90
2023-02-06T21:26:34.267Z,85.58
2023-02-06T21:29:10.704Z,85.39
2023-02-06T21:32:13.241Z,85.25
2023-02-06T21:34:42.799Z,85.57
2023-02-06T21:37:14.756Z,85.72
2023-02-06T21:39:46.049Z,85.43
2023-02-06T21:42:20.190Z,85.12
2023-02-06T21:45:09.729Z,85.44
2023-02-06T21:48:07.582Z,85.17
2023-02-06T21:53:14.009Z,85.40
2023-02-06T21:55:43.936Z,85.49
2023-02-06T21:58:17.157Z,85.59
2023-02-06T22:00:46.814Z,85.82
2023-02-06T22:03:15.444Z,85.77
2023-02-06T22:05:42.952Z,86.00
2023-02-06T22:08:10.575Z,85.75
2023-02-06T22:10:38.265Z,85.73
2023-02-06T22:13:08.978Z,85.66
2023-02-06T22:15:37.914Z,85.43
2023-02-06T22:18:05.730Z,85.73
2023-02-06T22:20:33.494Z,85.73
2023-02-06T22:23:00.796Z,85.73
2023-02-06T22:25:28.577Z,85.95
2023-02-06T22:27:55.992Z,85.72
2023-02-06T22:30:23.880Z,85.75
2023-02-06T22:32:54.444Z,86.07
2023-02-06T22:35:24.840Z,86.49
2023-02-06T22:37:52.805Z,86.54
2023-02-06T22:42:47.789Z,86.79
2023-02-06T22:45:18.203Z,87.30
2023-02-06T22:47:48.691Z,87.06
2023-02-06T22:50:19.214Z,87.38
2023-02-06T22:53:12.460Z,88.20
2023-02-06T22:55:59.388Z,88.29
2023-02-06T22:58:27.043Z,89.16
2023-02-06T23:01:02.171Z,88.47
2023-02-06T23:03:32.755Z,89.30
2023-02-06T23:06:05.211Z,89.69
2023-02-06T23:08:32.927Z,90.05
2023-02-06T23:11:00.393Z,90.07
2023-02-06T23:13:34.353Z,90.31
2023-02-06T23:16:08.569Z,90.70
2023-02-06T23:18:38.349Z,90.65
2023-02-06T23:21:10.891Z,90.75
2023-02-06T23:23:39.796Z,90.42
2023-02-06T23:26:10.397Z,90.52
2023-02-06T23:28:42.596Z,91.06
2023-02-06T23:31:13.707Z,90.99
2023-02-06T23:33:41.940Z,90.61
2023-02-06T23:36:13.089Z,90.50
2023-02-06T23:38:41.709Z,90.59
2023-02-06T23:41:09.854Z,90.62
2023-02-06T23:43:39.258Z,90.68
2023-02-06T23:46:12.453Z,90.86
2023-02-06T23:48:42.850Z,90.59
2023-02-06T23:51:10.314Z,90.51
2023-02-06T23:53:37.526Z,90.62
2023-02-06T23:56:20.775Z,90.72
2023-02-06T23:58:48.404Z,90.64
